Latest Coastal Weather Observations for Cape Bruny AWS

IDT60701

Issued at 5:13 pm EDT Friday 3 December 2021 (issued every 10 minutes, with the page automatically refreshed every 10 minutes)

About coastal observations | Map of coastal stations | Coastal observations for TAS | Marine services | Other Formats
Station Details ID: 094198 Name: CAPE BRUNY (CAPE BRUNY) Lat: -43.49 Lon: 147.14 Height: 59.7 m
Data from the previous 72 hours. | See also: Recent months at Cape Bruny AWS
Date/Time
EDT
Wind Sea
Height
m
Swell Vis
km
Cloud Weather Temp
°C
Press
MSL
hPa
Rain since
9am
mm
Dir  Spd
kts
Gust
kts
Height
m
Period
s
Dir
03/05:00pm S 8 14 - - - - - - - 16.6 1012.9 0.0
03/04:30pm SW 11 16 - - - - - - - 15.2 1013.1 0.0
03/04:00pm SW 15 21 - - - - - - - 15.4 1013.4 0.0
03/03:30pm SW 13 19 - - - - - - - 15.2 1013.8 0.0
03/03:00pm SW 15 22 - - - - - - - 16.8 1014.2 0.0
03/02:30pm SSW 10 16 - - - - - - - 16.2 1014.6 0.0
03/02:00pm SW 13 20 - - - - - - - 16.0 1014.9 0.0
03/01:30pm SW 13 18 - - - - - - - 16.4 1015.1 0.0
03/01:00pm SW 15 20 - - - - - - - 16.1 1015.5 0.0
03/12:30pm SW 14 19 - - - - - - - 15.9 1015.8 0.0
03/12:00pm SW 12 18 - - - - - - - 16.6 1016.0 0.0
03/11:30am WSW 13 18 - - - - - - - 16.1 1016.3 0.0
03/11:00am WSW 10 15 - - - - - - - 16.4 1016.6 0.0
03/10:30am WSW 11 14 - - - - - - - 15.1 1016.6 0.0
03/10:00am WSW 13 17 - - - - - - - 14.2 1016.7 0.0
03/09:30am W 7 9 - - - - - - - 14.7 1016.7 0.0
03/09:00am W 6 7 - - - - - - - 12.7 1016.6 0.0
03/08:30am W 10 13 - - - - - - - 13.1 1016.4 0.0
03/08:00am W 9 13 - - - - - - - 12.1 1016.1 0.0
03/07:30am WSW 11 15 - - - - - - - 11.3 1015.7 0.0
03/07:00am WSW 10 14 - - - - - - - 11.4 1015.3 0.0
03/06:30am W 9 11 - - - - - - - 11.6 1014.9 0.0
03/06:00am WSW 17 22 - - - - - - - 11.4 1014.3 0.0
03/05:39am W 18 28 - - - - - - - 11.1 1014.1 0.0
03/05:30am W 17 23 - - - - - - - 11.0 1014.1 0.0
03/05:00am WSW 19 22 - - - - - - - 11.3 1014.0 0.0
03/04:30am WSW 18 24 - - - - - - - 10.8 1013.4 0.0
03/04:00am W 19 26 - - - - - - - 10.7 1013.1 0.0
03/03:30am WSW 23 30 - - - - - - - 11.2 1013.0 0.0
03/03:00am SW 17 25 - - - - - - - 11.3 1013.0 0.0
03/02:30am WNW 15 20 - - - - - - - 13.3 1012.8 0.0
03/02:00am WNW 14 21 - - - - - - - 13.0 1012.6 0.0
03/01:30am W 22 28 - - - - - - - 13.2 1012.3 0.0
03/01:00am W 23 32 - - - - - - - 13.4 1012.3 0.0
03/12:30am W 22 29 - - - - - - - 13.3 1012.2 0.0
03/12:10am W 24 37 - - - - - - - 13.7 1012.2 0.0
03/12:00am W 21 29 - - - - - - - 13.4 1012.2 0.0
 
Date/Time
EDT
Wind Sea
Height
m
Swell Vis
km
Cloud Weather Temp
°C
Press
MSL
hPa
Rain since
9am
mm
Dir  Spd
kts
Gust
kts
Height
m
Period
s
Dir
02/11:30pm W 17 23 - - - - - - - 13.2 1012.2 0.0
02/11:00pm W 17 20 - - - - - - - 13.0 1012.0 0.0
02/10:30pm W 18 23 - - - - - - - 13.3 1011.4 0.0
02/10:00pm WSW 20 26 - - - - - - - 13.2 1010.9 0.0
02/09:30pm WSW 20 28 - - - - - - - 13.1 1010.4 0.0
02/09:00pm WSW 19 25 - - - - - - - 13.1 1009.9 0.0
02/08:43pm WSW 16 26 - - - - - - - 12.8 1009.4 0.0
02/08:30pm WSW 16 23 - - - - - - - 12.8 1009.5 0.0
02/08:02pm WSW 20 31 - - - - - - - 13.0 1009.4 0.0
02/08:00pm WSW 19 26 - - - - - - - 13.1 1009.3 0.0
02/07:54pm WSW 21 30 - - - - - - - 13.2 1008.8 0.0
02/07:30pm SW 14 22 - - - - - - - 13.1 1009.0 0.0
02/07:05pm SW 17 27 - - - - - - - 13.3 1009.0 0.0
02/07:00pm SW 20 27 - - - - - - - 13.2 1008.8 0.0
02/06:30pm SW 17 25 - - - - - - - 14.5 1009.1 0.0
02/06:00pm SW 23 34 - - - - - - - 13.8 1008.0 0.0
02/05:47pm SW 21 31 - - - - - - - 14.1 1008.2 0.0
02/05:30pm SW 25 31 - - - - - - - 13.7 1008.4 0.0
02/05:00pm SW 15 25 - - - - - - - 15.1 1008.5 0.0
02/04:30pm SW 16 26 - - - - - - - 16.1 1009.0 0.0
02/04:23pm SW 15 26 - - - - - - - 15.7 1009.0 0.0
02/04:00pm SW 13 21 - - - - - - - 16.8 1008.8 0.0
02/03:30pm SW 13 18 - - - - - - - 17.4 1009.2 0.0
02/03:00pm SW 11 18 - - - - - - - 17.1 1009.8 0.0
02/02:30pm S 11 17 - - - - - - - 17.0 1010.1 0.0
02/02:00pm S 11 16 - - - - - - - 18.3 1010.1 0.0
02/01:30pm SW 11 16 - - - - - - - 17.5 1010.4 0.0
02/01:00pm SW 11 20 - - - - - - - 18.1 1010.5 0.0
02/12:30pm SSW 9 12 - - - - - - - 19.9 1010.4 0.0
02/12:00pm S 12 16 - - - - - - - 19.2 1010.3 0.0
02/11:30am N 7 13 - - - - - - - 23.0 1010.5 0.0
02/11:00am NNE 9 13 - - - - - - - 22.3 1010.7 0.0
02/10:30am NNE 11 16 - - - - - - - 20.3 1011.1 0.0
02/10:00am N 11 18 - - - - - - - 19.5 1011.6 0.0
02/09:30am NNE 8 13 - - - - - - - 19.0 1012.0 0.0
02/09:00am ENE 5 8 - - - - - - - 18.5 1012.6 0.0
02/08:30am NE 7 11 - - - - - - - 17.6 1012.8 0.0
02/08:00am ENE 6 9 - - - - - - - 16.8 1013.1 0.0
02/07:30am N 7 9 - - - - - - - 15.4 1013.2 0.0
02/07:00am NE 5 8 - - - - - - - 14.9 1013.3 0.0
02/06:30am NE 6 7 - - - - - - - 14.4 1013.1 0.0
02/06:00am ENE 4 6 - - - - - - - 14.0 1013.2 0.0
02/05:30am NE 4 5 - - - - - - - 13.9 1013.2 0.0
02/05:00am NNE 4 5 - - - - - - - 13.9 1013.1 0.0
02/04:30am NNE 3 4 - - - - - - - 13.8 1013.3 0.0
02/04:00am NNE 3 4 - - - - - - - 13.8 1013.5 0.0
02/03:30am N 4 5 - - - - - - - 13.8 1013.7 0.0
02/03:00am NNE 3 4 - - - - - - - 13.9 1014.0 0.0
02/02:30am E 5 6 - - - - - - - 14.1 1014.1 0.0
02/02:00am E 6 8 - - - - - - - 14.1 1014.1 0.0
02/01:30am ESE 6 7 - - - - - - - 14.2 1014.3 0.0
02/01:00am ESE 5 6 - - - - - - - 14.2 1014.5 0.0
02/12:30am ESE 5 5 - - - - - - - 14.1 1014.6 0.0
02/12:00am ENE 4 6 - - - - - - - 13.9 1014.6 0.0
 
Date/Time
EDT
Wind Sea
Height
m
Swell Vis
km
Cloud Weather Temp
°C
Press
MSL
hPa
Rain since
9am
mm
Dir  Spd
kts
Gust
kts
Height
m
Period
s
Dir
01/11:30pm ESE 4 6 - - - - - - - 14.1 1014.9 0.0
01/11:00pm SSE 4 6 - - - - - - - 14.0 1015.1 0.0
01/10:30pm SSE 5 7 - - - - - - - 14.1 1015.2 0.0
01/10:00pm SSE 7 9 - - - - - - - 14.0 1015.4 0.0
01/09:30pm SSE 8 11 - - - - - - - 13.7 1015.1 0.0
01/09:00pm SSE 8 11 - - - - - - - 13.7 1014.7 0.0
01/08:30pm S 9 13 - - - - - - - 14.0 1014.6 0.0
01/08:00pm S 9 14 - - - - - - - 14.5 1014.3 0.0
01/07:30pm SW 9 16 - - - - - - - 15.0 1013.8 0.0
01/07:00pm SW 16 24 - - - - - - - 15.2 1013.0 0.0
01/06:30pm SW 20 26 - - - - - - - 15.6 1012.5 0.0
01/06:00pm SW 17 23 - - - - - - - 16.1 1012.2 0.0
01/05:30pm SW 13 18 - - - - - - - 17.2 1011.9 0.0
01/05:00pm ESE 14 18 - - - - - - - 16.7 1011.7 0.0
01/04:30pm ESE 9 16 - - - - - - - 16.6 1011.6 0.0
01/04:00pm SE 8 11 - - - - - - - 17.0 1011.4 0.0
01/03:30pm SE 9 12 - - - - - - - 18.6 1011.2 0.0
01/03:00pm SE 6 9 - - - - - - - 18.0 1011.7 0.0
01/02:30pm SE 6 8 - - - - - - - 16.7 1011.6 0.0
01/02:00pm S 6 10 - - - - - - - 16.7 1011.6 0.0
01/01:30pm SW 18 24 - - - - - - - 17.0 1011.3 0.0
01/01:00pm SW 15 19 - - - - - - - 19.3 1011.2 0.0
01/12:50pm SW 14 20 - - - - - - - 19.6 1011.4 0.0
01/12:30pm N 5 7 - - - - - - - 23.3 1010.7 0.0
01/12:00pm N 8 11 - - - - - - - 22.9 1010.4 0.0
01/11:30am NNE 10 16 - - - - - - - 24.3 1010.4 0.0
01/11:00am NNE 13 17 - - - - - - - 23.6 1010.5 0.0
01/10:30am NNE 12 16 - - - - - - - 22.9 1010.7 0.0
01/10:00am N 12 19 - - - - - - - 23.6 1010.6 0.0
01/09:30am NNE 12 17 - - - - - - - 21.4 1010.7 0.0
01/09:00am N 15 19 - - - - - - - 20.1 1010.7 0.0
01/08:30am N 15 19 - - - - - - - 18.5 1010.6 0.0
01/08:00am N 12 16 - - - - - - - 18.4 1010.7 0.0
01/07:30am N 12 16 - - - - - - - 17.4 1010.5 0.0
01/07:00am N 13 16 - - - - - - - 16.3 1010.5 0.0
01/06:30am N 14 18 - - - - - - - 15.8 1010.4 0.0
01/06:00am N 15 18 - - - - - - - 15.2 1010.1 0.0
01/05:00am N 13 17 - - - - - - - 14.8 1009.9 0.0
01/04:30am NNE 10 14 - - - - - - - 15.0 1010.0 0.0
01/04:00am N 13 17 - - - - - - - 14.9 1010.0 0.0
01/03:30am N 15 19 - - - - - - - 14.9 1010.0 0.0
01/03:00am N 15 19 - - - - - - - 15.0 1010.2 0.0
01/02:30am N 15 18 - - - - - - - 15.0 1010.5 0.0
01/02:00am N 14 18 - - - - - - - 15.2 1010.6 0.0
01/01:30am N 14 18 - - - - - - - 15.2 1010.7 0.0
01/01:00am N 14 19 - - - - - - - 15.3 1011.1 0.0
01/12:30am N 14 19 - - - - - - - 15.4 1011.2 0.0
01/12:00am N 14 19 - - - - - - - 15.5 1011.5 0.0
 
Date/Time
EDT
Wind Sea
Height
m
Swell Vis
km
Cloud Weather Temp
°C
Press
MSL
hPa
Rain since
9am
mm
Dir  Spd
kts
Gust
kts
Height
m
Period
s
Dir
30/11:30pm N 14 18 - - - - - - - 15.8 1011.7 0.0
30/11:00pm N 11 15 - - - - - - - 16.1 1012.0 0.0
30/10:30pm NNE 13 22 - - - - - - - 16.2 1012.2 0.0
30/10:00pm NNE 12 16 - - - - - - - 16.2 1012.5 0.0
30/09:30pm N 9 14 - - - - - - - 16.4 1012.4 0.0
30/09:00pm NNE 11 17 - - - - - - - 16.8 1011.9 0.0
30/08:30pm NNE 7 11 - - - - - - - 16.9 1011.8 0.0
30/08:00pm N 5 7 - - - - - - - 17.9 1011.6 0.0
30/07:30pm NNE 6 8 - - - - - - - 19.2 1011.5 0.0
30/07:00pm NW 4 7 - - - - - - - 20.5 1011.5 0.0
30/06:30pm NW 4 7 - - - - - - - 20.9 1011.4 0.0
30/06:00pm S 3 6 - - - - - - - 21.1 1011.5 0.0
30/05:30pm SSW 6 9 - - - - - - - 20.1 1011.8 0.0

Other formats

Comma delimited format used in spreadsheet applications
http://www.bom.gov.au/fwo/IDT60701/IDT60701.95967.axf

JavaScript Object Notation format (JSON) in row-major order
http://www.bom.gov.au/fwo/IDT60701/IDT60701.95967.json

Data quality

Most of these data are generated automatically and are frequently updated. Quality checks on data are not normally performed. It is possible for incorrect values to appear. Refer to information at About Latest Weather Observations and please check the disclaimer before using these data.